Time;durP1;ratioP1;P1;durP2;ratioP2;P2;SDS_P1;SDS_P2;PMS_P1;PMS_P2;Temp;Humidity;BMP_temperature;BMP_pressure;BME280_temperature;BME280_humidity;BME280_pressure;Samples;Min_cycle;Max_cycle;Signal;HPM_P1;HPM_P2
2021/08/12 00:02:02;;;;;;;6.68;3.50;;;22.20;62.00;;;;;;5061531;28;20031;-63
2021/08/12 00:04:28;;;;;;;6.45;3.60;;;22.20;62.00;;;;;;5054584;28;20029;-62
2021/08/12 00:06:54;;;;;;;7.43;3.60;;;22.20;62.10;;;;;;5054754;28;20131;-62
2021/08/12 00:09:19;;;;;;;6.43;3.58;;;22.20;62.10;;;;;;5054800;28;20017;-63
2021/08/12 00:11:45;;;;;;;6.80;3.58;;;22.20;62.00;;;;;;5054329;28;20512;-63
2021/08/12 00:14:10;;;;;;;8.10;4.00;;;22.20;62.10;;;;;;5054468;28;20111;-63
2021/08/12 00:16:37;;;;;;;6.75;3.50;;;22.20;62.20;;;;;;5053015;28;20017;-63
2021/08/12 00:19:03;;;;;;;7.32;3.75;;;22.20;62.10;;;;;;5054309;28;20025;-63
2021/08/12 00:21:29;;;;;;;6.82;3.97;;;22.10;62.10;;;;;;5054203;28;20020;-63
2021/08/12 00:23:56;;;;;;;6.38;3.88;;;22.20;62.10;;;;;;5054190;28;20124;-63
2021/08/12 00:26:22;;;;;;;7.65;4.38;;;22.20;62.20;;;;;;5054297;28;20442;-63
2021/08/12 00:28:48;;;;;;;6.43;3.50;;;22.10;62.20;;;;;;5053967;28;20029;-63
2021/08/12 00:31:13;;;;;;;6.82;3.42;;;22.10;62.20;;;;;;5053974;28;20028;-62
2021/08/12 00:33:39;;;;;;;7.18;3.75;;;22.10;62.30;;;;;;5053813;28;20086;-63
2021/08/12 00:36:04;;;;;;;6.15;3.63;;;22.10;62.20;;;;;;5053679;28;20171;-63
2021/08/12 00:38:30;;;;;;;7.53;3.72;;;22.10;62.30;;;;;;5053724;28;20032;-63
2021/08/12 00:40:56;;;;;;;7.38;3.88;;;22.10;62.30;;;;;;5053931;28;20032;-63
2021/08/12 00:43:21;;;;;;;6.32;3.33;;;22.10;62.40;;;;;;5053835;28;20017;-62
2021/08/12 00:45:47;;;;;;;6.82;3.75;;;22.10;62.40;;;;;;5053649;28;20052;-63
2021/08/12 00:48:12;;;;;;;6.13;3.55;;;22.10;62.40;;;;;;5053598;28;20063;-62
2021/08/12 00:50:42;;;;;;;6.78;3.80;;;22.10;62.50;;;;;;5052340;28;20124;-63
2021/08/12 00:53:09;;;;;;;7.25;3.63;;;22.10;62.50;;;;;;5053718;28;20051;-63
2021/08/12 00:55:42;;;;;;;6.40;3.78;;;22.10;62.30;;;;;;5053538;28;20025;-63
2021/08/12 00:58:08;;;;;;;6.40;3.63;;;22.10;62.30;;;;;;5053689;28;20029;-62
2021/08/12 01:00:35;;;;;;;7.95;3.97;;;22.00;62.50;;;;;;5052522;28;20185;-63
2021/08/12 01:03:04;;;;;;;6.70;3.67;;;22.10;62.50;;;;;;5053348;28;20025;-62
2021/08/12 01:05:30;;;;;;;7.63;3.70;;;22.00;62.70;;;;;;5053348;28;20420;-63
2021/08/12 01:08:18;;;;;;;8.82;3.38;;;22.00;62.70;;;;;;5053279;28;20028;-63
2021/08/12 01:10:54;;;;;;;7.85;3.75;;;22.00;62.60;;;;;;5053378;28;20059;-62
2021/08/12 01:13:46;;;;;;;6.72;3.55;;;22.10;62.50;;;;;;5053201;28;20035;-62
2021/08/12 01:16:14;;;;;;;7.38;4.00;;;22.10;62.60;;;;;;5053369;28;20527;-63
2021/08/12 01:18:54;;;;;;;8.30;3.72;;;22.00;62.70;;;;;;5053151;28;20388;-62
2021/08/12 01:21:50;;;;;;;5.97;3.60;;;22.00;62.80;;;;;;5053072;28;20102;-62
2021/08/12 01:24:16;;;;;;;6.68;3.33;;;22.00;62.80;;;;;;5053282;28;20029;-62
2021/08/12 01:26:46;;;;;;;5.93;3.67;;;22.00;62.80;;;;;;5056309;28;20503;-63
2021/08/12 01:29:19;;;;;;;7.30;3.67;;;22.00;62.90;;;;;;5064511;28;20029;-64
2021/08/12 01:32:18;;;;;;;6.35;3.53;;;22.00;63.00;;;;;;5063818;28;20028;-67
2021/08/12 01:35:13;;;;;;;6.82;3.92;;;22.00;62.80;;;;;;5064187;28;20028;-65
2021/08/12 01:37:50;;;;;;;6.88;3.70;;;22.00;62.80;;;;;;5065291;28;20045;-64
2021/08/12 01:40:18;;;;;;;7.38;4.10;;;22.00;62.80;;;;;;5064975;28;20029;-65
2021/08/12 01:42:45;;;;;;;7.25;3.63;;;22.00;62.70;;;;;;5064165;28;20461;-64
2021/08/12 01:45:13;;;;;;;7.30;3.75;;;22.00;62.80;;;;;;5063211;28;20025;-63
2021/08/12 01:47:40;;;;;;;7.53;3.35;;;22.00;62.80;;;;;;5059756;28;20033;-62
2021/08/12 01:50:08;;;;;;;6.65;3.58;;;22.00;62.80;;;;;;5052755;28;20382;-63
2021/08/12 01:52:35;;;;;;;6.97;3.83;;;22.00;62.90;;;;;;5052778;28;20033;-62
2021/08/12 01:55:03;;;;;;;7.03;3.92;;;21.90;62.90;;;;;;5052775;28;20032;-62
2021/08/12 01:57:30;;;;;;;6.65;3.72;;;21.90;62.90;;;;;;5052569;28;20021;-62
2021/08/12 01:59:56;;;;;;;6.25;3.42;;;22.00;62.90;;;;;;5052645;28;20100;-62
2021/08/12 02:02:23;;;;;;;6.47;3.22;;;22.00;62.80;;;;;;5052615;28;20127;-64
2021/08/12 02:04:52;;;;;;;6.40;3.55;;;22.00;62.90;;;;;;5052673;28;20032;-62
2021/08/12 02:07:17;;;;;;;6.82;3.72;;;22.00;63.00;;;;;;5052485;28;20400;-63
2021/08/12 02:09:43;;;;;;;6.97;3.90;;;21.90;63.00;;;;;;5052560;28;20104;-62
2021/08/12 02:12:10;;;;;;;6.60;3.28;;;21.90;63.10;;;;;;5056222;28;20108;-62
2021/08/12 02:14:36;;;;;;;6.15;3.53;;;21.90;63.00;;;;;;5056581;28;20064;-62
2021/08/12 02:17:03;;;;;;;7.45;3.78;;;21.90;63.00;;;;;;5056725;28;20025;-62
2021/08/12 02:19:29;;;;;;;6.35;3.67;;;21.80;63.10;;;;;;5056802;28;20033;-63
2021/08/12 02:22:10;;;;;;;6.88;3.47;;;21.90;63.20;;;;;;5056395;28;20025;-63
2021/08/12 02:24:47;;;;;;;6.50;3.63;;;21.90;63.20;;;;;;5056338;28;20078;-63
2021/08/12 02:27:15;;;;;;;7.22;4.00;;;21.90;63.20;;;;;;5056157;28;20564;-63
2021/08/12 02:29:42;;;;;;;7.07;3.83;;;21.80;63.20;;;;;;5056291;28;20028;-63
2021/08/12 02:32:11;;;;;;;6.75;3.67;;;21.80;63.10;;;;;;5056158;28;20025;-63
2021/08/12 02:34:39;;;;;;;6.88;3.53;;;21.90;63.20;;;;;;5055977;28;20029;-63
2021/08/12 02:37:10;;;;;;;6.95;3.90;;;21.80;63.10;;;;;;5056177;28;20043;-63
2021/08/12 02:39:37;;;;;;;6.10;3.55;;;21.80;63.20;;;;;;5056177;28;20392;-62
2021/08/12 02:42:03;;;;;;;6.85;4.03;;;21.80;63.20;;;;;;5056009;28;20028;-63
2021/08/12 02:44:30;;;;;;;6.68;3.70;;;21.80;63.20;;;;;;5056014;28;20025;-62
2021/08/12 02:46:59;;;;;;;7.15;3.40;;;21.80;63.30;;;;;;5055941;28;20037;-62
2021/08/12 02:49:28;;;;;;;6.32;3.28;;;21.80;63.30;;;;;;5055934;28;20078;-62
2021/08/12 02:51:56;;;;;;;6.13;3.47;;;21.80;63.30;;;;;;5055818;28;20074;-62
2021/08/12 02:54:21;;;;;;;7.10;3.40;;;21.70;63.30;;;;;;5056078;28;20029;-62
2021/08/12 02:56:48;;;;;;;7.85;4.00;;;21.80;63.20;;;;;;5055753;28;20392;-62
2021/08/12 02:59:15;;;;;;;6.53;3.47;;;21.80;63.20;;;;;;5055710;28;20037;-63
2021/08/12 03:01:41;;;;;;;5.85;3.22;;;21.80;63.30;;;;;;5055717;28;20033;-62
2021/08/12 03:04:07;;;;;;;7.00;3.65;;;21.70;63.30;;;;;;5056171;28;20057;-62
2021/08/12 03:06:34;;;;;;;7.20;3.40;;;21.70;63.30;;;;;;5055555;28;20543;-63
2021/08/12 03:09:00;;;;;;;7.20;4.15;;;21.70;63.30;;;;;;5055587;28;20045;-62
2021/08/12 03:11:26;;;;;;;6.30;3.65;;;21.70;63.30;;;;;;5055587;28;20051;-62
2021/08/12 03:13:53;;;;;;;6.65;3.53;;;21.70;63.30;;;;;;5055622;28;20532;-63
2021/08/12 03:16:20;;;;;;;7.50;3.58;;;21.70;63.30;;;;;;5059141;28;20054;-63
2021/08/12 03:18:45;;;;;;;6.43;3.50;;;21.70;63.30;;;;;;5058590;28;20028;-62
2021/08/12 03:21:13;;;;;;;5.97;3.33;;;21.70;63.30;;;;;;5055606;28;20025;-63
2021/08/12 03:23:41;;;;;;;6.95;3.53;;;21.70;63.40;;;;;;5057548;28;20025;-62
2021/08/12 03:26:07;;;;;;;6.68;3.78;;;21.70;63.40;;;;;;5058178;28;20476;-62
2021/08/12 03:28:33;;;;;;;6.10;3.50;;;21.60;63.40;;;;;;5055256;28;20475;-62
2021/08/12 03:30:59;;;;;;;7.10;3.45;;;21.60;63.50;;;;;;5055217;28;20111;-62
2021/08/12 03:33:25;;;;;;;5.97;3.13;;;21.60;63.40;;;;;;5055093;28;20020;-62
2021/08/12 03:35:51;;;;;;;7.28;3.75;;;21.60;63.50;;;;;;5055126;28;20052;-62
2021/08/12 03:38:16;;;;;;;6.82;3.45;;;21.60;63.50;;;;;;5055421;28;20021;-62
2021/08/12 03:40:42;;;;;;;8.30;3.67;;;21.70;63.40;;;;;;5055095;28;20029;-62
2021/08/12 03:43:07;;;;;;;7.07;4.20;;;21.70;63.40;;;;;;5054857;28;20029;-62
2021/08/12 03:45:33;;;;;;;6.88;3.50;;;21.60;63.40;;;;;;5054941;28;20025;-62
2021/08/12 03:47:58;;;;;;;6.30;3.42;;;21.60;63.50;;;;;;5054814;28;20029;-62
2021/08/12 03:50:24;;;;;;;5.95;3.30;;;21.60;63.40;;;;;;5054761;28;20040;-62
2021/08/12 03:52:49;;;;;;;6.22;3.55;;;21.70;63.40;;;;;;5054692;28;20402;-62
2021/08/12 03:55:15;;;;;;;6.72;3.50;;;21.60;63.40;;;;;;5055126;28;20024;-62
2021/08/12 03:57:42;;;;;;;6.53;3.70;;;21.60;63.50;;;;;;5054818;28;20096;-63
2021/08/12 04:00:09;;;;;;;6.20;3.63;;;21.60;63.40;;;;;;5055254;28;20029;-62
2021/08/12 04:02:34;;;;;;;6.45;3.47;;;21.60;63.50;;;;;;5054665;28;20495;-62
2021/08/12 04:05:00;;;;;;;5.40;3.08;;;21.60;63.60;;;;;;5054865;28;20025;-62
2021/08/12 04:07:25;;;;;;;7.55;3.63;;;21.60;63.60;;;;;;5054377;28;20037;-63
2021/08/12 04:09:51;;;;;;;6.60;3.75;;;21.60;63.50;;;;;;5056031;28;20330;-62
2021/08/12 04:12:16;;;;;;;7.53;3.60;;;21.60;63.50;;;;;;5056097;28;20036;-62
2021/08/12 04:14:42;;;;;;;6.32;3.45;;;21.60;63.40;;;;;;5055271;28;20036;-62
2021/08/12 04:17:07;;;;;;;7.18;3.83;;;21.50;63.50;;;;;;5056337;28;20060;-62
2021/08/12 04:19:33;;;;;;;7.13;3.60;;;21.50;63.60;;;;;;5055895;28;20047;-62
2021/08/12 04:21:58;;;;;;;5.85;3.28;;;21.50;63.80;;;;;;5054488;28;20021;-62
2021/08/12 04:24:24;;;;;;;7.05;3.25;;;21.50;63.70;;;;;;5054474;28;20477;-63
2021/08/12 04:26:49;;;;;;;5.90;2.92;;;21.50;63.70;;;;;;5054421;28;20503;-62
2021/08/12 04:29:15;;;;;;;8.27;3.90;;;21.50;63.70;;;;;;5054219;28;20060;-62
2021/08/12 04:31:40;;;;;;;6.85;3.30;;;21.50;63.90;;;;;;5053946;28;20384;-62
2021/08/12 04:34:06;;;;;;;6.28;3.33;;;21.50;63.70;;;;;;5054007;28;20029;-63
2021/08/12 04:36:31;;;;;;;6.50;3.45;;;21.50;63.70;;;;;;5053811;28;20063;-62
2021/08/12 04:38:57;;;;;;;6.75;3.50;;;21.50;63.80;;;;;;5054047;28;20035;-62
2021/08/12 04:41:22;;;;;;;7.40;3.85;;;21.50;63.90;;;;;;5053988;28;20455;-62
2021/08/12 04:43:48;;;;;;;7.18;3.50;;;21.50;63.90;;;;;;5054179;28;20345;-62
2021/08/12 04:46:14;;;;;;;7.60;3.78;;;21.50;63.80;;;;;;5053673;28;20029;-62
2021/08/12 04:48:39;;;;;;;6.47;3.30;;;21.50;63.70;;;;;;5053661;28;20024;-62
2021/08/12 04:51:05;;;;;;;6.88;3.53;;;21.50;63.70;;;;;;5053537;28;20025;-62
2021/08/12 04:53:30;;;;;;;8.10;3.40;;;21.50;63.60;;;;;;5053771;28;20380;-62
2021/08/12 04:55:56;;;;;;;6.10;3.40;;;21.50;63.60;;;;;;5053692;28;20029;-62
2021/08/12 04:58:21;;;;;;;6.50;3.40;;;21.50;63.60;;;;;;5053797;28;20032;-62
2021/08/12 05:00:47;;;;;;;7.00;3.53;;;21.50;63.60;;;;;;5053954;28;20017;-62
2021/08/12 05:03:13;;;;;;;6.63;3.65;;;21.50;63.70;;;;;;5054005;28;20032;-62
2021/08/12 05:05:39;;;;;;;6.25;3.58;;;21.50;63.70;;;;;;5053508;28;20357;-62
2021/08/12 05:08:04;;;;;;;7.15;3.53;;;21.50;63.70;;;;;;5053363;28;20040;-62
2021/08/12 05:10:30;;;;;;;8.93;4.10;;;21.50;63.60;;;;;;5052289;28;20016;-62
2021/08/12 05:12:56;;;;;;;6.30;3.10;;;21.50;63.60;;;;;;5053442;28;20025;-62
2021/08/12 05:15:21;;;;;;;6.55;3.45;;;21.50;63.60;;;;;;5053356;28;20108;-62
2021/08/12 05:17:47;;;;;;;7.50;3.47;;;21.50;63.50;;;;;;5053171;28;20025;-63
2021/08/12 05:20:12;;;;;;;6.47;3.30;;;21.50;63.60;;;;;;5053433;28;20029;-62
2021/08/12 05:22:38;;;;;;;6.88;3.75;;;21.50;63.60;;;;;;5052285;28;20068;-63
2021/08/12 05:25:07;;;;;;;7.25;3.50;;;21.50;63.60;;;;;;5053554;28;20040;-62
2021/08/12 05:27:33;;;;;;;6.63;3.42;;;21.50;63.60;;;;;;5053299;28;20435;-62
2021/08/12 05:29:59;;;;;;;6.90;3.60;;;21.50;63.70;;;;;;5052929;28;20040;-62
2021/08/12 05:32:24;;;;;;;7.70;3.70;;;21.50;63.60;;;;;;5053179;28;20033;-62
2021/08/12 05:34:50;;;;;;;6.65;3.75;;;21.50;63.80;;;;;;5052947;28;20108;-62
2021/08/12 05:37:15;;;;;;;7.60;3.83;;;21.50;63.80;;;;;;5052958;28;20029;-62
2021/08/12 05:39:41;;;;;;;8.23;3.55;;;21.50;63.90;;;;;;5052782;28;20062;-62
2021/08/12 05:42:06;;;;;;;7.07;3.63;;;21.50;63.80;;;;;;5053073;28;20032;-62
2021/08/12 05:44:32;;;;;;;7.03;3.72;;;21.50;63.90;;;;;;5051699;28;20409;-62
2021/08/12 05:46:57;;;;;;;15.05;6.28;;;21.50;63.90;;;;;;5052326;28;20500;-62
2021/08/12 05:49:24;;;;;;;9.52;4.50;;;21.50;63.90;;;;;;5053252;28;20025;-62
2021/08/12 05:51:51;;;;;;;7.72;3.65;;;21.50;64.10;;;;;;5053043;28;20079;-62
2021/08/12 05:54:17;;;;;;;9.52;4.03;;;21.50;64.10;;;;;;5052937;28;20034;-62
2021/08/12 05:56:42;;;;;;;6.97;3.97;;;21.50;64.00;;;;;;5052657;28;20029;-62
2021/08/12 05:59:08;;;;;;;9.00;4.20;;;21.50;64.10;;;;;;5053110;28;20111;-62
2021/08/12 06:01:33;;;;;;;9.05;4.13;;;21.50;64.10;;;;;;5052898;28;20064;-62
2021/08/12 06:03:59;;;;;;;7.43;4.22;;;21.50;64.10;;;;;;5052716;28;20453;-62
2021/08/12 06:06:25;;;;;;;9.45;4.57;;;21.50;64.20;;;;;;5052934;28;20037;-62
2021/08/12 06:08:50;;;;;;;7.65;4.63;;;21.50;64.30;;;;;;5053002;28;20380;-62
2021/08/12 06:11:16;;;;;;;7.07;4.10;;;21.50;64.40;;;;;;5051536;28;20033;-62
2021/08/12 06:13:41;;;;;;;8.38;4.20;;;21.50;64.40;;;;;;5052924;28;20032;-62
2021/08/12 06:16:07;;;;;;;8.13;4.80;;;21.50;64.40;;;;;;5052695;28;20033;-62
2021/08/12 06:18:33;;;;;;;8.15;3.90;;;21.50;64.10;;;;;;5052580;28;20066;-63
2021/08/12 06:20:59;;;;;;;7.20;4.18;;;21.50;64.00;;;;;;5052923;28;20107;-62
2021/08/12 06:23:24;;;;;;;7.82;4.38;;;21.50;64.00;;;;;;5052703;28;20029;-62
2021/08/12 06:25:50;;;;;;;8.43;3.95;;;21.50;64.10;;;;;;5052584;28;20469;-62
2021/08/12 06:28:16;;;;;;;7.43;4.35;;;21.50;64.20;;;;;;5052691;28;20033;-62
2021/08/12 06:30:41;;;;;;;8.43;4.47;;;21.50;64.00;;;;;;5052909;28;20029;-62
2021/08/12 06:33:07;;;;;;;8.60;4.30;;;21.50;64.20;;;;;;5052458;28;20465;-62
2021/08/12 06:35:34;;;;;;;6.68;3.70;;;21.50;64.00;;;;;;5052421;28;20077;-62
2021/08/12 06:38:01;;;;;;;8.02;4.43;;;21.50;63.90;;;;;;5052520;28;20445;-62
2021/08/12 06:40:27;;;;;;;7.88;3.95;;;21.50;63.90;;;;;;5052785;28;20032;-62
2021/08/12 06:42:53;;;;;;;10.27;4.95;;;21.50;64.40;;;;;;5052664;28;20033;-62
2021/08/12 06:45:20;;;;;;;7.25;4.05;;;21.50;64.20;;;;;;5052191;28;20033;-62
2021/08/12 06:47:46;;;;;;;7.32;4.00;;;21.50;64.10;;;;;;5058021;28;20025;-62
2021/08/12 06:50:14;;;;;;;7.10;4.25;;;21.50;64.30;;;;;;5052881;28;20029;-62
2021/08/12 06:52:40;;;;;;;7.38;4.00;;;21.50;64.20;;;;;;5052620;28;20037;-62
2021/08/12 06:55:06;;;;;;;8.75;4.05;;;21.50;64.10;;;;;;5052341;28;20025;-62
2021/08/12 06:57:31;;;;;;;8.27;4.22;;;21.60;64.30;;;;;;5052824;28;20025;-62
2021/08/12 06:59:57;;;;;;;7.50;4.30;;;21.60;64.00;;;;;;5056416;28;20024;-62
2021/08/12 07:02:22;;;;;;;7.13;3.75;;;21.60;63.90;;;;;;5056073;28;20380;-65
2021/08/12 07:04:48;;;;;;;7.47;4.13;;;21.60;63.70;;;;;;5055664;28;20480;-62
2021/08/12 07:07:13;;;;;;;7.53;3.85;;;21.60;63.70;;;;;;5052691;28;20044;-64
2021/08/12 07:09:39;;;;;;;8.50;4.00;;;21.60;63.50;;;;;;5053744;28;20530;-63
2021/08/12 07:12:05;;;;;;;6.60;4.03;;;21.60;63.40;;;;;;5054251;28;20033;-62
2021/08/12 07:14:30;;;;;;;8.23;4.10;;;21.70;63.30;;;;;;5054568;28;20484;-64
2021/08/12 07:16:57;;;;;;;6.78;3.38;;;21.60;63.40;;;;;;5054489;28;20094;-63
2021/08/12 07:19:23;;;;;;;8.32;4.15;;;21.70;63.30;;;;;;5050914;28;20046;-63
2021/08/12 07:21:48;;;;;;;9.23;4.45;;;21.70;63.30;;;;;;5053555;28;20082;-63
2021/08/12 07:24:14;;;;;;;8.32;4.20;;;21.70;63.30;;;;;;5054450;28;20361;-63
2021/08/12 07:26:41;;;;;;;7.15;4.13;;;21.70;63.30;;;;;;5054479;28;20041;-63
2021/08/12 07:29:07;;;;;;;22.45;5.38;;;21.80;63.40;;;;;;5053861;28;20021;-63
2021/08/12 07:31:33;;;;;;;10.88;4.15;;;21.80;63.40;;;;;;5053864;28;20501;-63
2021/08/12 07:33:59;;;;;;;8.30;4.65;;;21.70;63.30;;;;;;5054279;28;20032;-63
2021/08/12 07:36:25;;;;;;;11.13;4.85;;;21.80;63.40;;;;;;5054236;28;20049;-62
2021/08/12 07:38:50;;;;;;;9.52;4.45;;;21.80;63.40;;;;;;5053766;28;20469;-62
2021/08/12 07:41:17;;;;;;;8.55;4.00;;;21.80;63.40;;;;;;5053499;28;20033;-62
2021/08/12 07:43:43;;;;;;;7.78;4.30;;;21.80;63.40;;;;;;5054236;28;20021;-63
2021/08/12 07:46:08;;;;;;;7.30;4.18;;;21.90;63.40;;;;;;5059162;28;20029;-62
2021/08/12 07:48:36;;;;;;;7.28;4.40;;;21.80;63.40;;;;;;5055589;28;20026;-63
2021/08/12 07:51:02;;;;;;;8.75;4.50;;;21.90;63.40;;;;;;5053653;28;20032;-63
2021/08/12 07:53:27;;;;;;;7.65;4.22;;;21.90;63.50;;;;;;5053846;28;20037;-63
2021/08/12 07:55:53;;;;;;;10.05;4.65;;;21.90;63.50;;;;;;5054188;28;20024;-62
2021/08/12 07:58:18;;;;;;;6.78;3.70;;;21.90;63.50;;;;;;5053611;28;20052;-62
2021/08/12 08:00:44;;;;;;;9.50;4.15;;;22.00;63.40;;;;;;5053298;28;20024;-63
2021/08/12 08:03:09;;;;;;;10.10;4.53;;;22.00;63.40;;;;;;5053630;28;20079;-62
2021/08/12 08:05:35;;;;;;;8.85;4.20;;;22.00;63.50;;;;;;5053434;28;20029;-61
2021/08/12 08:08:00;;;;;;;9.20;4.47;;;22.00;63.40;;;;;;5053265;28;20087;-62
2021/08/12 08:10:27;;;;;;;8.38;4.68;;;22.00;63.50;;;;;;5052982;28;20044;-63
2021/08/12 08:12:53;;;;;;;7.55;4.03;;;22.00;63.40;;;;;;5053177;28;20024;-63
2021/08/12 08:15:20;;;;;;;11.27;5.53;;;22.00;63.40;;;;;;5053311;28;20021;-62
2021/08/12 08:17:46;;;;;;;10.50;4.57;;;22.00;63.40;;;;;;5053821;28;20025;-62
2021/08/12 08:20:12;;;;;;;8.02;4.18;;;22.00;63.40;;;;;;5052870;28;20435;-62
2021/08/12 08:22:39;;;;;;;9.30;4.28;;;22.00;63.30;;;;;;5053424;28;20482;-64
2021/08/12 08:25:06;;;;;;;7.82;4.30;;;22.00;63.30;;;;;;5051360;28;20370;-62
2021/08/12 08:27:32;;;;;;;9.43;4.25;;;22.00;63.40;;;;;;5053245;28;20134;-63
2021/08/12 08:29:57;;;;;;;10.88;4.85;;;22.00;63.30;;;;;;5052891;28;20496;-63
2021/08/12 08:32:23;;;;;;;8.32;4.28;;;22.10;63.30;;;;;;5052837;28;20032;-63
2021/08/12 08:34:49;;;;;;;8.07;4.40;;;22.10;63.30;;;;;;5052318;28;20056;-62
2021/08/12 08:37:15;;;;;;;9.82;5.38;;;22.10;63.20;;;;;;5054094;28;20103;-63
2021/08/12 08:39:41;;;;;;;7.47;4.45;;;22.10;63.30;;;;;;5053078;28;20047;-63
2021/08/12 08:42:08;;;;;;;9.50;4.32;;;22.10;63.20;;;;;;5052984;28;20443;-63
2021/08/12 08:44:38;;;;;;;7.68;4.22;;;22.10;63.20;;;;;;5051753;28;20017;-63
2021/08/12 08:47:07;;;;;;;10.02;4.72;;;22.10;63.20;;;;;;5053426;28;20079;-62
2021/08/12 08:49:39;;;;;;;7.97;4.05;;;22.10;63.20;;;;;;5053282;28;20385;-63
2021/08/12 08:52:08;;;;;;;9.45;4.82;;;22.10;63.10;;;;;;5053449;28;20033;-63
2021/08/12 08:54:36;;;;;;;6.60;3.78;;;22.20;63.10;;;;;;5053709;28;20059;-63
2021/08/12 08:57:05;;;;;;;9.75;4.70;;;22.10;63.00;;;;;;5053531;28;20025;-62
2021/08/12 08:59:34;;;;;;;8.05;4.35;;;22.20;62.90;;;;;;5053520;28;20444;-63
2021/08/12 09:02:07;;;;;;;9.32;4.72;;;22.10;63.00;;;;;;5053033;28;20031;-63
2021/08/12 09:04:34;;;;;;;11.43;4.53;;;22.20;62.80;;;;;;5052459;28;20017;-63
2021/08/12 09:07:03;;;;;;;8.50;4.25;;;22.20;62.90;;;;;;5053111;28;20566;-63
2021/08/12 09:09:31;;;;;;;11.15;3.83;;;22.20;62.80;;;;;;5053083;28;20056;-63
2021/08/12 09:11:57;;;;;;;10.27;4.53;;;22.20;62.80;;;;;;5053199;28;20031;-63
2021/08/12 09:14:37;;;;;;;11.55;4.38;;;22.20;62.80;;;;;;5053030;28;20108;-63
2021/08/12 09:17:22;;;;;;;9.23;4.50;;;22.20;62.70;;;;;;5053165;28;20029;-63
2021/08/12 09:20:08;;;;;;;10.55;4.18;;;22.20;62.70;;;;;;5052652;28;20027;-63
2021/08/12 09:23:05;;;;;;;10.70;4.10;;;22.20;62.70;;;;;;5053103;28;20021;-63
2021/08/12 09:25:34;;;;;;;9.57;5.03;;;22.20;62.70;;;;;;5052817;28;20048;-63
2021/08/12 09:28:27;;;;;;;8.85;4.60;;;22.30;62.60;;;;;;5059806;28;20017;-66
2021/08/12 09:30:59;;;;;;;9.45;4.78;;;22.30;62.50;;;;;;5062853;28;20032;-63
2021/08/12 09:33:30;;;;;;;10.23;5.10;;;22.30;62.50;;;;;;5062359;28;20086;-63
2021/08/12 09:35:56;;;;;;;8.90;4.05;;;22.20;62.50;;;;;;5061394;28;20056;-63
2021/08/12 09:38:23;;;;;;;9.02;4.68;;;22.30;62.50;;;;;;5057019;28;20036;-63
2021/08/12 09:40:57;;;;;;;8.60;4.53;;;22.30;62.50;;;;;;5054649;28;20036;-63
2021/08/12 09:43:28;;;;;;;7.72;4.10;;;22.30;62.50;;;;;;5054197;28;20029;-62
2021/08/12 09:45:53;;;;;;;9.45;5.05;;;22.30;62.30;;;;;;5054272;28;20476;-63
2021/08/12 09:48:20;;;;;;;10.00;4.47;;;22.30;62.40;;;;;;5053591;28;20040;-63
2021/08/12 09:50:59;;;;;;;9.80;4.90;;;22.30;62.30;;;;;;5055325;28;20047;-63
2021/08/12 09:53:25;;;;;;;8.43;4.55;;;22.30;62.20;;;;;;5053388;28;20021;-63
2021/08/12 09:55:51;;;;;;;11.98;4.90;;;22.40;62.20;;;;;;5052692;28;20025;-62
2021/08/12 09:58:18;;;;;;;11.02;4.65;;;22.40;62.10;;;;;;5052594;28;20027;-63
2021/08/12 10:00:45;;;;;;;11.07;5.00;;;22.40;62.10;;;;;;5052529;28;20021;-63
2021/08/12 10:03:31;;;;;;;9.45;4.72;;;22.40;62.00;;;;;;5053825;28;20036;-62
2021/08/12 10:06:02;;;;;;;10.65;5.18;;;22.40;62.20;;;;;;5053573;28;20033;-63
2021/08/12 10:08:32;;;;;;;11.57;5.22;;;22.40;62.10;;;;;;5052943;28;20056;-63
2021/08/12 10:11:16;;;;;;;7.93;4.15;;;22.40;62.10;;;;;;5051367;28;20036;-63
2021/08/12 10:13:42;;;;;;;10.82;5.13;;;22.40;62.20;;;;;;5055363;28;20107;-63
2021/08/12 10:16:09;;;;;;;10.07;4.93;;;22.40;62.10;;;;;;5052623;28;20036;-62
2021/08/12 10:18:40;;;;;;;8.32;4.10;;;22.40;62.00;;;;;;5052487;28;20025;-63
2021/08/12 10:21:06;;;;;;;8.90;4.18;;;22.40;62.10;;;;;;5052458;28;20508;-63
2021/08/12 10:23:32;;;;;;;7.70;3.88;;;22.40;62.00;;;;;;5053313;28;20029;-63
2021/08/12 10:25:58;;;;;;;8.32;4.57;;;22.50;61.90;;;;;;5052519;28;20049;-63
2021/08/12 10:28:26;;;;;;;10.02;4.22;;;22.50;61.90;;;;;;5052365;28;20057;-63
2021/08/12 10:30:55;;;;;;;9.77;4.60;;;22.50;61.80;;;;;;5052279;28;20032;-63
2021/08/12 10:33:21;;;;;;;8.65;4.63;;;22.50;61.70;;;;;;5056021;28;20060;-63
2021/08/12 10:35:48;;;;;;;11.15;5.05;;;22.50;61.50;;;;;;5056033;28;20079;-63
2021/08/12 10:38:13;;;;;;;11.35;5.05;;;22.50;61.30;;;;;;5056209;28;20384;-63
2021/08/12 10:40:42;;;;;;;10.45;4.60;;;22.50;61.30;;;;;;5056080;28;20032;-63
2021/08/12 10:43:13;;;;;;;10.25;4.63;;;22.60;61.20;;;;;;5056714;28;20067;-63
2021/08/12 10:45:39;;;;;;;7.25;4.05;;;22.50;61.00;;;;;;5056140;28;20044;-63
2021/08/12 10:48:07;;;;;;;8.75;4.43;;;22.60;61.00;;;;;;5055932;28;20028;-63
2021/08/12 10:50:35;;;;;;;10.15;4.40;;;22.60;61.00;;;;;;5056013;28;20375;-63
2021/08/12 10:53:04;;;;;;;10.05;4.57;;;22.60;60.90;;;;;;5055775;28;20052;-63
2021/08/12 10:55:30;;;;;;;9.38;4.15;;;22.60;60.70;;;;;;5055782;28;20021;-63
2021/08/12 10:58:17;;;;;;;9.95;4.38;;;22.70;60.60;;;;;;5056137;28;20037;-62
2021/08/12 11:00:54;;;;;;;9.80;4.32;;;22.60;60.30;;;;;;5055911;28;20021;-63
2021/08/12 11:03:31;;;;;;;7.95;3.90;;;22.70;60.20;;;;;;5055668;28;20071;-63
2021/08/12 11:06:08;;;;;;;9.45;4.70;;;22.70;60.10;;;;;;5055673;28;20099;-63
2021/08/12 11:11:15;;;;;;;8.10;3.40;;;22.70;59.80;;;;;;5055951;28;20116;-62
2021/08/12 11:13:41;;;;;;;7.50;3.83;;;22.70;59.90;;;;;;5055488;28;20057;-63
2021/08/12 11:16:08;;;;;;;9.95;3.67;;;22.70;59.70;;;;;;5055272;28;20083;-63
2021/08/12 11:18:51;;;;;;;9.30;3.65;;;22.80;59.60;;;;;;5055185;28;20333;-63
2021/08/12 11:21:32;;;;;;;8.23;3.80;;;22.80;59.70;;;;;;5055273;28;20358;-63
2021/08/12 11:24:00;;;;;;;9.63;3.65;;;22.80;59.50;;;;;;5054978;28;20071;-63
2021/08/12 11:26:48;;;;;;;9.73;3.50;;;22.90;59.50;;;;;;5055076;28;20028;-63
2021/08/12 11:29:22;;;;;;;10.35;4.05;;;22.80;59.60;;;;;;5055081;28;20028;-63
2021/08/12 11:31:48;;;;;;;7.22;3.75;;;22.90;59.70;;;;;;5055223;28;20064;-63
2021/08/12 11:34:26;;;;;;;7.75;3.80;;;22.90;59.70;;;;;;5055175;28;20053;-63
2021/08/12 11:37:21;;;;;;;7.72;4.32;;;22.90;59.70;;;;;;5054905;28;20040;-63
2021/08/12 11:39:52;;;;;;;7.63;4.00;;;22.90;59.70;;;;;;5045334;28;20029;-62
2021/08/12 11:42:24;;;;;;;8.63;3.67;;;23.00;59.50;;;;;;5054825;28;20443;-62
2021/08/12 11:44:51;;;;;;;8.32;3.35;;;23.00;59.30;;;;;;5053202;28;20048;-63
2021/08/12 11:47:17;;;;;;;9.55;3.45;;;23.00;59.20;;;;;;5054405;28;20048;-62
2021/08/12 11:49:47;;;;;;;7.75;3.88;;;23.10;59.10;;;;;;5054323;28;20017;-62
2021/08/12 11:52:20;;;;;;;8.65;3.88;;;23.10;58.90;;;;;;5054526;28;20052;-63
2021/08/12 11:55:07;;;;;;;9.05;3.67;;;23.10;58.60;;;;;;5053540;28;20411;-63
2021/08/12 11:57:39;;;;;;;7.20;3.65;;;23.10;58.40;;;;;;5054261;28;20473;-63
2021/08/12 12:00:24;;;;;;;6.03;2.95;;;23.20;58.40;;;;;;5053974;28;20032;-63
2021/08/12 12:03:03;;;;;;;7.28;3.40;;;23.20;58.30;;;;;;5054072;28;20021;-63
2021/08/12 12:05:31;;;;;;;10.48;3.97;;;23.20;58.10;;;;;;5053797;28;20031;-64
2021/08/12 12:08:04;;;;;;;9.75;3.80;;;23.20;58.20;;;;;;5053943;28;20040;-64
2021/08/12 12:10:32;;;;;;;8.38;2.92;;;23.30;58.30;;;;;;5053995;28;20025;-64
2021/08/12 12:13:12;;;;;;;7.97;3.65;;;23.30;58.40;;;;;;5054515;28;20033;-65
2021/08/12 12:15:46;;;;;;;6.88;3.88;;;23.30;58.50;;;;;;5053245;28;20025;-62
2021/08/12 12:18:13;;;;;;;6.70;3.35;;;23.30;58.50;;;;;;5053720;28;20025;-63
2021/08/12 12:20:41;;;;;;;6.25;2.65;;;23.30;58.30;;;;;;5053098;28;20539;-64
2021/08/12 12:23:09;;;;;;;8.52;2.35;;;23.40;58.30;;;;;;5053977;28;20029;-64
2021/08/12 12:25:37;;;;;;;5.47;2.83;;;23.40;58.30;;;;;;5053416;28;20017;-63
2021/08/12 12:28:03;;;;;;;7.75;3.15;;;23.40;58.20;;;;;;5053356;28;20111;-63
2021/08/12 12:30:31;;;;;;;6.13;3.00;;;23.40;58.20;;;;;;5052664;28;20052;-64
2021/08/12 12:33:06;;;;;;;6.55;3.20;;;23.40;58.20;;;;;;5053424;28;20103;-64
2021/08/12 12:35:40;;;;;;;7.07;3.63;;;23.50;57.80;;;;;;5053627;28;20052;-63
2021/08/12 12:38:07;;;;;;;8.30;3.25;;;23.50;57.50;;;;;;5056519;28;20025;-63
2021/08/12 12:40:35;;;;;;;7.07;3.45;;;23.60;57.50;;;;;;5054068;28;20040;-63
2021/08/12 12:43:02;;;;;;;7.32;2.63;;;23.60;57.40;;;;;;5053642;28;20029;-62
2021/08/12 12:45:28;;;;;;;6.60;3.22;;;23.60;57.30;;;;;;5052858;28;20021;-65
2021/08/12 12:48:15;;;;;;;7.00;3.30;;;23.60;57.00;;;;;;5053741;28;20037;-63
2021/08/12 12:50:43;;;;;;;7.78;3.20;;;23.70;56.90;;;;;;5053670;28;20025;-62
2021/08/12 12:53:08;;;;;;;7.22;3.00;;;23.70;56.70;;;;;;5052407;28;20032;-62
2021/08/12 12:55:39;;;;;;;9.85;2.72;;;23.70;56.40;;;;;;5051164;28;20096;-63